sensor_id;sensor_type;location;lat;lon;timestamp;temperature;humidity
56308;DHT22;42217;50.422;7.210;2022-08-24T00:00:10;18.90;66.30
56308;DHT22;42217;50.422;7.210;2022-08-24T00:02:36;18.90;66.40
56308;DHT22;42217;50.422;7.210;2022-08-24T00:05:03;19.10;63.00
56308;DHT22;42217;50.422;7.210;2022-08-24T00:07:29;19.20;60.60
56308;DHT22;42217;50.422;7.210;2022-08-24T00:09:56;19.30;58.80
56308;DHT22;42217;50.422;7.210;2022-08-24T00:12:22;19.30;58.90
56308;DHT22;42217;50.422;7.210;2022-08-24T00:14:48;19.30;58.50
56308;DHT22;42217;50.422;7.210;2022-08-24T00:17:15;19.30;58.10
56308;DHT22;42217;50.422;7.210;2022-08-24T00:19:40;19.20;59.90
56308;DHT22;42217;50.422;7.210;2022-08-24T00:22:07;19.20;59.60
56308;DHT22;42217;50.422;7.210;2022-08-24T00:24:32;19.00;62.00
56308;DHT22;42217;50.422;7.210;2022-08-24T00:26:58;19.10;63.40
56308;DHT22;42217;50.422;7.210;2022-08-24T00:29:25;19.00;64.10
56308;DHT22;42217;50.422;7.210;2022-08-24T00:31:50;18.80;65.80
56308;DHT22;42217;50.422;7.210;2022-08-24T00:34:17;18.60;70.00
56308;DHT22;42217;50.422;7.210;2022-08-24T00:36:43;18.40;73.90
56308;DHT22;42217;50.422;7.210;2022-08-24T00:39:09;18.20;77.80
56308;DHT22;42217;50.422;7.210;2022-08-24T00:41:39;18.10;78.80
56308;DHT22;42217;50.422;7.210;2022-08-24T00:44:06;18.10;75.00
56308;DHT22;42217;50.422;7.210;2022-08-24T00:46:54;18.30;73.70
56308;DHT22;42217;50.422;7.210;2022-08-24T00:49:43;18.60;66.80
56308;DHT22;42217;50.422;7.210;2022-08-24T00:52:44;18.80;61.60
56308;DHT22;42217;50.422;7.210;2022-08-24T00:55:21;18.90;58.50
56308;DHT22;42217;50.422;7.210;2022-08-24T00:57:51;18.60;61.40
56308;DHT22;42217;50.422;7.210;2022-08-24T01:00:26;18.40;66.70
56308;DHT22;42217;50.422;7.210;2022-08-24T01:02:58;18.30;69.90
56308;DHT22;42217;50.422;7.210;2022-08-24T01:05:32;18.40;68.30
56308;DHT22;42217;50.422;7.210;2022-08-24T01:08:00;18.70;62.70
56308;DHT22;42217;50.422;7.210;2022-08-24T01:10:29;18.80;60.00
56308;DHT22;42217;50.422;7.210;2022-08-24T01:12:57;18.90;58.70
56308;DHT22;42217;50.422;7.210;2022-08-24T01:15:24;18.90;57.70
56308;DHT22;42217;50.422;7.210;2022-08-24T01:17:50;18.70;59.20
56308;DHT22;42217;50.422;7.210;2022-08-24T01:20:36;18.50;62.60
56308;DHT22;42217;50.422;7.210;2022-08-24T01:25:48;18.20;69.80
56308;DHT22;42217;50.422;7.210;2022-08-24T01:28:16;17.90;75.60
56308;DHT22;42217;50.422;7.210;2022-08-24T01:30:43;18.00;76.90
56308;DHT22;42217;50.422;7.210;2022-08-24T01:33:13;18.20;73.20
56308;DHT22;42217;50.422;7.210;2022-08-24T01:35:46;18.30;70.00
56308;DHT22;42217;50.422;7.210;2022-08-24T01:38:12;18.20;71.60
56308;DHT22;42217;50.422;7.210;2022-08-24T01:40:43;18.10;73.30
56308;DHT22;42217;50.422;7.210;2022-08-24T01:43:11;18.00;74.20
56308;DHT22;42217;50.422;7.210;2022-08-24T01:45:37;17.80;79.50
56308;DHT22;42217;50.422;7.210;2022-08-24T01:48:03;17.80;80.70
56308;DHT22;42217;50.422;7.210;2022-08-24T01:50:29;17.80;79.20
56308;DHT22;42217;50.422;7.210;2022-08-24T01:52:57;17.80;78.60
56308;DHT22;42217;50.422;7.210;2022-08-24T01:55:26;17.50;84.20
56308;DHT22;42217;50.422;7.210;2022-08-24T01:57:51;17.30;90.20
56308;DHT22;42217;50.422;7.210;2022-08-24T02:00:17;17.10;92.20
56308;DHT22;42217;50.422;7.210;2022-08-24T02:02:43;17.30;90.70
56308;DHT22;42217;50.422;7.210;2022-08-24T02:05:12;17.60;85.40
56308;DHT22;42217;50.422;7.210;2022-08-24T02:07:38;17.60;83.90
56308;DHT22;42217;50.422;7.210;2022-08-24T02:10:08;17.30;87.20
56308;DHT22;42217;50.422;7.210;2022-08-24T02:12:35;17.10;90.90
56308;DHT22;42217;50.422;7.210;2022-08-24T02:15:03;16.90;93.10
56308;DHT22;42217;50.422;7.210;2022-08-24T02:17:32;17.10;91.70
56308;DHT22;42217;50.422;7.210;2022-08-24T02:19:59;17.10;91.50
56308;DHT22;42217;50.422;7.210;2022-08-24T02:22:25;17.10;92.10
56308;DHT22;42217;50.422;7.210;2022-08-24T02:24:51;17.10;91.90
56308;DHT22;42217;50.422;7.210;2022-08-24T02:27:17;17.00;92.20
56308;DHT22;42217;50.422;7.210;2022-08-24T02:29:44;17.20;92.30
56308;DHT22;42217;50.422;7.210;2022-08-24T02:32:10;17.40;90.50
56308;DHT22;42217;50.422;7.210;2022-08-24T02:34:37;17.60;88.00
56308;DHT22;42217;50.422;7.210;2022-08-24T02:37:04;17.70;84.40
56308;DHT22;42217;50.422;7.210;2022-08-24T02:39:30;17.70;84.80
56308;DHT22;42217;50.422;7.210;2022-08-24T02:41:56;17.50;86.50
56308;DHT22;42217;50.422;7.210;2022-08-24T02:44:22;17.20;89.80
56308;DHT22;42217;50.422;7.210;2022-08-24T02:46:47;16.90;92.10
56308;DHT22;42217;50.422;7.210;2022-08-24T02:49:13;16.60;94.00
56308;DHT22;42217;50.422;7.210;2022-08-24T02:51:41;16.30;95.70
56308;DHT22;42217;50.422;7.210;2022-08-24T02:54:09;16.10;98.90
56308;DHT22;42217;50.422;7.210;2022-08-24T02:56:35;16.20;99.70
56308;DHT22;42217;50.422;7.210;2022-08-24T02:59:01;16.30;98.60
56308;DHT22;42217;50.422;7.210;2022-08-24T03:01:28;16.40;98.20
56308;DHT22;42217;50.422;7.210;2022-08-24T03:03:54;16.40;98.20
56308;DHT22;42217;50.422;7.210;2022-08-24T03:06:20;16.60;97.00
56308;DHT22;42217;50.422;7.210;2022-08-24T03:08:46;16.90;95.60
56308;DHT22;42217;50.422;7.210;2022-08-24T03:11:12;17.00;94.40
56308;DHT22;42217;50.422;7.210;2022-08-24T03:13:38;17.20;92.80
56308;DHT22;42217;50.422;7.210;2022-08-24T03:16:04;17.30;91.40
56308;DHT22;42217;50.422;7.210;2022-08-24T03:18:30;17.50;90.40
56308;DHT22;42217;50.422;7.210;2022-08-24T03:20:58;17.40;89.90
56308;DHT22;42217;50.422;7.210;2022-08-24T03:23:24;17.20;90.60
56308;DHT22;42217;50.422;7.210;2022-08-24T03:25:51;17.20;91.80
56308;DHT22;42217;50.422;7.210;2022-08-24T03:28:21;17.30;91.10
56308;DHT22;42217;50.422;7.210;2022-08-24T03:30:47;17.50;89.50
56308;DHT22;42217;50.422;7.210;2022-08-24T03:33:14;17.50;88.30
56308;DHT22;42217;50.422;7.210;2022-08-24T03:35:40;17.30;90.30
56308;DHT22;42217;50.422;7.210;2022-08-24T03:38:06;17.00;92.60
56308;DHT22;42217;50.422;7.210;2022-08-24T03:40:32;16.60;95.20
56308;DHT22;42217;50.422;7.210;2022-08-24T03:42:59;16.40;97.50
56308;DHT22;42217;50.422;7.210;2022-08-24T03:45:28;16.60;96.60
56308;DHT22;42217;50.422;7.210;2022-08-24T03:47:55;16.90;94.50
56308;DHT22;42217;50.422;7.210;2022-08-24T03:50:22;17.20;92.20
56308;DHT22;42217;50.422;7.210;2022-08-24T03:52:48;17.20;91.50
56308;DHT22;42217;50.422;7.210;2022-08-24T03:55:14;17.00;92.30
56308;DHT22;42217;50.422;7.210;2022-08-24T03:57:40;16.90;93.50
56308;DHT22;42217;50.422;7.210;2022-08-24T04:00:08;16.80;94.10
56308;DHT22;42217;50.422;7.210;2022-08-24T04:02:34;16.80;94.10
56308;DHT22;42217;50.422;7.210;2022-08-24T04:05:00;16.50;94.30
56308;DHT22;42217;50.422;7.210;2022-08-24T04:07:26;16.20;95.90
56308;DHT22;42217;50.422;7.210;2022-08-24T04:09:52;16.10;98.00
56308;DHT22;42217;50.422;7.210;2022-08-24T04:12:18;16.20;98.30
56308;DHT22;42217;50.422;7.210;2022-08-24T04:14:43;16.20;97.90
56308;DHT22;42217;50.422;7.210;2022-08-24T04:17:09;16.00;99.00
56308;DHT22;42217;50.422;7.210;2022-08-24T04:19:36;15.80;99.90
56308;DHT22;42217;50.422;7.210;2022-08-24T04:22:02;15.80;99.90
56308;DHT22;42217;50.422;7.210;2022-08-24T04:24:28;16.20;99.90
56308;DHT22;42217;50.422;7.210;2022-08-24T04:26:54;16.60;97.50
56308;DHT22;42217;50.422;7.210;2022-08-24T04:29:20;16.70;95.20
56308;DHT22;42217;50.422;7.210;2022-08-24T04:31:46;16.70;94.10
56308;DHT22;42217;50.422;7.210;2022-08-24T04:34:14;16.90;93.30
56308;DHT22;42217;50.422;7.210;2022-08-24T04:36:41;16.90;92.80
56308;DHT22;42217;50.422;7.210;2022-08-24T04:39:08;16.70;93.40
56308;DHT22;42217;50.422;7.210;2022-08-24T04:41:34;16.50;95.30
56308;DHT22;42217;50.422;7.210;2022-08-24T04:44:00;16.20;97.30
56308;DHT22;42217;50.422;7.210;2022-08-24T04:46:27;15.90;99.30
56308;DHT22;42217;50.422;7.210;2022-08-24T04:48:53;16.00;99.70
56308;DHT22;42217;50.422;7.210;2022-08-24T04:51:19;16.20;98.20
56308;DHT22;42217;50.422;7.210;2022-08-24T04:53:46;16.30;97.80
56308;DHT22;42217;50.422;7.210;2022-08-24T04:56:21;16.40;97.00
56308;DHT22;42217;50.422;7.210;2022-08-24T04:58:49;16.60;95.70
56308;DHT22;42217;50.422;7.210;2022-08-24T05:01:17;16.30;96.50
56308;DHT22;42217;50.422;7.210;2022-08-24T05:03:48;16.10;97.50
56308;DHT22;42217;50.422;7.210;2022-08-24T05:06:16;16.00;98.80
56308;DHT22;42217;50.422;7.210;2022-08-24T05:08:41;16.10;98.00
56308;DHT22;42217;50.422;7.210;2022-08-24T05:11:08;16.10;98.20
56308;DHT22;42217;50.422;7.210;2022-08-24T05:13:34;16.10;98.70
56308;DHT22;42217;50.422;7.210;2022-08-24T05:16:04;16.00;99.50
56308;DHT22;42217;50.422;7.210;2022-08-24T05:18:30;16.00;99.90
56308;DHT22;42217;50.422;7.210;2022-08-24T05:20:58;16.00;99.70
56308;DHT22;42217;50.422;7.210;2022-08-24T05:23:23;16.20;98.80
56308;DHT22;42217;50.422;7.210;2022-08-24T05:25:49;16.50;97.20
56308;DHT22;42217;50.422;7.210;2022-08-24T05:28:15;16.80;95.80
56308;DHT22;42217;50.422;7.210;2022-08-24T05:30:41;16.90;94.50
56308;DHT22;42217;50.422;7.210;2022-08-24T05:33:06;16.80;94.10
56308;DHT22;42217;50.422;7.210;2022-08-24T05:35:39;16.60;94.40
56308;DHT22;42217;50.422;7.210;2022-08-24T05:38:05;16.60;95.10
56308;DHT22;42217;50.422;7.210;2022-08-24T05:40:31;16.70;95.20
56308;DHT22;42217;50.422;7.210;2022-08-24T05:42:57;16.80;95.00
56308;DHT22;42217;50.422;7.210;2022-08-24T05:45:22;16.90;94.70
56308;DHT22;42217;50.422;7.210;2022-08-24T05:47:48;17.10;94.50
56308;DHT22;42217;50.422;7.210;2022-08-24T05:50:14;17.20;94.40
56308;DHT22;42217;50.422;7.210;2022-08-24T05:52:40;17.40;92.30
56308;DHT22;42217;50.422;7.210;2022-08-24T05:55:07;17.50;91.80
56308;DHT22;42217;50.422;7.210;2022-08-24T05:57:34;17.70;89.80
56308;DHT22;42217;50.422;7.210;2022-08-24T06:00:00;17.80;86.40
56308;DHT22;42217;50.422;7.210;2022-08-24T06:02:26;18.00;83.20
56308;DHT22;42217;50.422;7.210;2022-08-24T06:04:53;18.20;80.10
56308;DHT22;42217;50.422;7.210;2022-08-24T06:07:19;18.50;72.00
56308;DHT22;42217;50.422;7.210;2022-08-24T06:09:44;18.80;64.70
56308;DHT22;42217;50.422;7.210;2022-08-24T06:12:10;19.00;57.60
56308;DHT22;42217;50.422;7.210;2022-08-24T06:14:37;19.20;45.80
56308;DHT22;42217;50.422;7.210;2022-08-24T06:17:07;19.40;36.30
56308;DHT22;42217;50.422;7.210;2022-08-24T06:19:34;19.60;33.90
56308;DHT22;42217;50.422;7.210;2022-08-24T06:22:00;19.80;24.90
56308;DHT22;42217;50.422;7.210;2022-08-24T06:24:26;20.00;23.10
56308;DHT22;42217;50.422;7.210;2022-08-24T06:27:12;20.20;24.40
56308;DHT22;42217;50.422;7.210;2022-08-24T06:29:52;20.40;13.30
56308;DHT22;42217;50.422;7.210;2022-08-24T06:32:19;20.60;7.90
56308;DHT22;42217;50.422;7.210;2022-08-24T06:34:45;20.80;1.00
56308;DHT22;42217;50.422;7.210;2022-08-24T06:37:11;21.10;1.00
56308;DHT22;42217;50.422;7.210;2022-08-24T06:39:36;21.40;1.00
56308;DHT22;42217;50.422;7.210;2022-08-24T06:42:03;21.60;1.00
56308;DHT22;42217;50.422;7.210;2022-08-24T06:44:30;21.90;1.00
56308;DHT22;42217;50.422;7.210;2022-08-24T06:46:56;22.00;1.00
56308;DHT22;42217;50.422;7.210;2022-08-24T06:49:22;22.20;1.00
56308;DHT22;42217;50.422;7.210;2022-08-24T06:51:49;22.40;1.00
56308;DHT22;42217;50.422;7.210;2022-08-24T06:54:15;22.60;1.00
56308;DHT22;42217;50.422;7.210;2022-08-24T06:56:41;22.80;1.00
56308;DHT22;42217;50.422;7.210;2022-08-24T06:59:07;23.00;1.00
56308;DHT22;42217;50.422;7.210;2022-08-24T07:01:32;23.10;1.00
56308;DHT22;42217;50.422;7.210;2022-08-24T07:03:58;23.20;99.90
56308;DHT22;42217;50.422;7.210;2022-08-24T07:06:24;23.30;99.90
56308;DHT22;42217;50.422;7.210;2022-08-24T07:08:50;23.50;99.90
56308;DHT22;42217;50.422;7.210;2022-08-24T07:11:17;23.60;99.90
56308;DHT22;42217;50.422;7.210;2022-08-24T07:13:44;23.60;99.90
56308;DHT22;42217;50.422;7.210;2022-08-24T07:16:11;23.70;99.90
56308;DHT22;42217;50.422;7.210;2022-08-24T07:18:37;23.80;99.90
56308;DHT22;42217;50.422;7.210;2022-08-24T07:21:03;23.90;99.90
56308;DHT22;42217;50.422;7.210;2022-08-24T07:23:30;24.10;99.90
56308;DHT22;42217;50.422;7.210;2022-08-24T07:25:56;24.20;99.90
56308;DHT22;42217;50.422;7.210;2022-08-24T07:28:22;24.30;99.90
56308;DHT22;42217;50.422;7.210;2022-08-24T07:30:47;24.30;99.90
56308;DHT22;42217;50.422;7.210;2022-08-24T07:33:13;24.50;1.00
56308;DHT22;42217;50.422;7.210;2022-08-24T07:35:39;24.40;1.00
56308;DHT22;42217;50.422;7.210;2022-08-24T07:38:06;24.50;1.00
56308;DHT22;42217;50.422;7.210;2022-08-24T07:40:33;24.50;1.00
56308;DHT22;42217;50.422;7.210;2022-08-24T07:43:00;24.60;1.00
56308;DHT22;42217;50.422;7.210;2022-08-24T07:45:26;24.60;1.00
56308;DHT22;42217;50.422;7.210;2022-08-24T07:47:53;24.80;1.00
56308;DHT22;42217;50.422;7.210;2022-08-24T07:50:19;25.00;1.00
56308;DHT22;42217;50.422;7.210;2022-08-24T07:52:45;25.20;99.40
56308;DHT22;42217;50.422;7.210;2022-08-24T07:55:12;25.20;99.90
56308;DHT22;42217;50.422;7.210;2022-08-24T07:57:39;25.30;83.60
56308;DHT22;42217;50.422;7.210;2022-08-24T08:00:10;25.30;1.00
56308;DHT22;42217;50.422;7.210;2022-08-24T08:02:38;25.20;99.90
56308;DHT22;42217;50.422;7.210;2022-08-24T08:05:05;25.20;99.90
56308;DHT22;42217;50.422;7.210;2022-08-24T08:07:31;25.30;99.90
56308;DHT22;42217;50.422;7.210;2022-08-24T08:09:57;25.30;99.90
56308;DHT22;42217;50.422;7.210;2022-08-24T08:12:22;25.50;57.50
56308;DHT22;42217;50.422;7.210;2022-08-24T08:14:48;25.50;1.00
56308;DHT22;42217;50.422;7.210;2022-08-24T08:17:14;25.60;24.50
56308;DHT22;42217;50.422;7.210;2022-08-24T08:19:41;25.70;99.90
56308;DHT22;42217;50.422;7.210;2022-08-24T08:22:08;25.80;99.90
56308;DHT22;42217;50.422;7.210;2022-08-24T08:24:52;25.90;1.00
56308;DHT22;42217;50.422;7.210;2022-08-24T08:27:18;26.10;99.90
56308;DHT22;42217;50.422;7.210;2022-08-24T08:29:45;26.10;99.90
56308;DHT22;42217;50.422;7.210;2022-08-24T08:32:12;26.30;99.90
56308;DHT22;42217;50.422;7.210;2022-08-24T08:34:42;26.40;1.00
56308;DHT22;42217;50.422;7.210;2022-08-24T08:37:08;26.40;1.00
56308;DHT22;42217;50.422;7.210;2022-08-24T08:39:34;26.50;99.90
56308;DHT22;42217;50.422;7.210;2022-08-24T09:01:21;27.10;1.00
56308;DHT22;42217;50.422;7.210;2022-08-24T09:09:40;27.70;99.90
56308;DHT22;42217;50.422;7.210;2022-08-24T09:23:31;27.80;42.70
56308;DHT22;42217;50.422;7.210;2022-08-24T09:31:45;28.10;1.00
56308;DHT22;42217;50.422;7.210;2022-08-24T09:34:24;28.00;99.90
56308;DHT22;42217;50.422;7.210;2022-08-24T10:25:58;29.40;99.90
56308;DHT22;42217;50.422;7.210;2022-08-24T10:38:48;29.90;99.90
56308;DHT22;42217;50.422;7.210;2022-08-24T10:47:00;30.30;95.00
56308;DHT22;42217;50.422;7.210;2022-08-24T10:54:32;30.20;24.10
56308;DHT22;42217;50.422;7.210;2022-08-24T10:57:08;30.10;22.90
56308;DHT22;42217;50.422;7.210;2022-08-24T11:00:06;30.10;31.20
56308;DHT22;42217;50.422;7.210;2022-08-24T11:02:40;30.30;28.50
56308;DHT22;42217;50.422;7.210;2022-08-24T11:05:16;30.40;10.00
56308;DHT22;42217;50.422;7.210;2022-08-24T11:07:57;30.40;1.00
56308;DHT22;42217;50.422;7.210;2022-08-24T11:10:31;30.60;1.00
56308;DHT22;42217;50.422;7.210;2022-08-24T11:15:51;30.90;1.00
56308;DHT22;42217;50.422;7.210;2022-08-24T11:18:18;31.00;1.00
56308;DHT22;42217;50.422;7.210;2022-08-24T11:20:46;30.90;1.00
56308;DHT22;42217;50.422;7.210;2022-08-24T11:23:18;30.90;1.00
56308;DHT22;42217;50.422;7.210;2022-08-24T11:30:52;30.80;1.00
56308;DHT22;42217;50.422;7.210;2022-08-24T11:33:34;30.90;1.00
56308;DHT22;42217;50.422;7.210;2022-08-24T11:36:15;30.90;1.00
56308;DHT22;42217;50.422;7.210;2022-08-24T11:38:41;30.90;1.00
56308;DHT22;42217;50.422;7.210;2022-08-24T11:41:17;30.90;99.90
56308;DHT22;42217;50.422;7.210;2022-08-24T11:46:42;30.80;99.90
56308;DHT22;42217;50.422;7.210;2022-08-24T11:54:37;30.80;99.90
56308;DHT22;42217;50.422;7.210;2022-08-24T12:10:57;31.10;99.90
56308;DHT22;42217;50.422;7.210;2022-08-24T12:21:27;31.80;99.90
56308;DHT22;42217;50.422;7.210;2022-08-24T12:24:02;31.80;99.90
56308;DHT22;42217;50.422;7.210;2022-08-24T12:26:39;31.90;99.90
56308;DHT22;42217;50.422;7.210;2022-08-24T12:29:10;31.70;99.90
56308;DHT22;42217;50.422;7.210;2022-08-24T12:31:45;31.70;99.90
56308;DHT22;42217;50.422;7.210;2022-08-24T12:34:22;31.80;99.90
56308;DHT22;42217;50.422;7.210;2022-08-24T12:42:38;32.40;99.90
56308;DHT22;42217;50.422;7.210;2022-08-24T12:45:08;32.50;99.90
56308;DHT22;42217;50.422;7.210;2022-08-24T12:55:53;32.50;99.90
56308;DHT22;42217;50.422;7.210;2022-08-24T13:00:54;32.90;99.90
56308;DHT22;42217;50.422;7.210;2022-08-24T13:03:38;33.20;99.90
56308;DHT22;42217;50.422;7.210;2022-08-24T13:06:26;33.40;99.90
56308;DHT22;42217;50.422;7.210;2022-08-24T13:11:41;33.10;99.90
56308;DHT22;42217;50.422;7.210;2022-08-24T13:14:19;33.40;99.90
56308;DHT22;42217;50.422;7.210;2022-08-24T13:22:37;34.00;99.90
56308;DHT22;42217;50.422;7.210;2022-08-24T13:31:21;35.50;99.90
56308;DHT22;42217;50.422;7.210;2022-08-24T13:42:22;38.70;99.90
56308;DHT22;42217;50.422;7.210;2022-08-24T13:56:19;38.60;99.90
56308;DHT22;42217;50.422;7.210;2022-08-24T14:01:34;39.70;99.90
56308;DHT22;42217;50.422;7.210;2022-08-24T14:15:06;42.00;99.90
56308;DHT22;42217;50.422;7.210;2022-08-24T14:20:52;41.40;99.90
56308;DHT22;42217;50.422;7.210;2022-08-24T14:37:18;42.10;99.90
56308;DHT22;42217;50.422;7.210;2022-08-24T14:40:11;42.50;99.90
56308;DHT22;42217;50.422;7.210;2022-08-24T14:48:14;43.60;99.90
56308;DHT22;42217;50.422;7.210;2022-08-24T15:02:42;44.20;99.90
56308;DHT22;42217;50.422;7.210;2022-08-24T15:04:51;44.20;99.90
56308;DHT22;42217;50.422;7.210;2022-08-24T15:07:21;44.90;99.90
56308;DHT22;42217;50.422;7.210;2022-08-24T15:09:47;45.10;99.90
56308;DHT22;42217;50.422;7.210;2022-08-24T15:15:07;44.30;99.90
56308;DHT22;42217;50.422;7.210;2022-08-24T15:20:19;43.80;99.90
56308;DHT22;42217;50.422;7.210;2022-08-24T15:22:59;44.20;99.90
56308;DHT22;42217;50.422;7.210;2022-08-24T15:28:00;45.00;99.90
56308;DHT22;42217;50.422;7.210;2022-08-24T15:30:34;45.20;99.90
56308;DHT22;42217;50.422;7.210;2022-08-24T15:33:18;44.70;99.90
56308;DHT22;42217;50.422;7.210;2022-08-24T15:35:47;44.50;99.90
56308;DHT22;42217;50.422;7.210;2022-08-24T15:43:43;44.20;99.90
56308;DHT22;42217;50.422;7.210;2022-08-24T15:46:11;43.80;99.90
56308;DHT22;42217;50.422;7.210;2022-08-24T15:48:37;44.50;99.90
56308;DHT22;42217;50.422;7.210;2022-08-24T15:51:05;44.10;99.90
56308;DHT22;42217;50.422;7.210;2022-08-24T15:53:40;43.20;99.90
56308;DHT22;42217;50.422;7.210;2022-08-24T15:56:31;41.60;99.90
56308;DHT22;42217;50.422;7.210;2022-08-24T15:59:10;41.80;99.90
56308;DHT22;42217;50.422;7.210;2022-08-24T16:01:36;42.10;99.90
56308;DHT22;42217;50.422;7.210;2022-08-24T16:04:42;42.10;99.90
56308;DHT22;42217;50.422;7.210;2022-08-24T16:07:15;42.80;99.90
56308;DHT22;42217;50.422;7.210;2022-08-24T16:09:45;43.30;99.90
56308;DHT22;42217;50.422;7.210;2022-08-24T16:12:20;43.40;99.90
56308;DHT22;42217;50.422;7.210;2022-08-24T16:14:52;43.50;99.90
56308;DHT22;42217;50.422;7.210;2022-08-24T16:19:52;43.10;99.90
56308;DHT22;42217;50.422;7.210;2022-08-24T16:22:36;42.80;99.90
56308;DHT22;42217;50.422;7.210;2022-08-24T16:33:04;42.40;99.90
56308;DHT22;42217;50.422;7.210;2022-08-24T16:35:30;42.40;99.90
56308;DHT22;42217;50.422;7.210;2022-08-24T16:37:57;42.10;99.90
56308;DHT22;42217;50.422;7.210;2022-08-24T16:40:24;42.10;99.90
56308;DHT22;42217;50.422;7.210;2022-08-24T16:42:50;42.40;99.90
56308;DHT22;42217;50.422;7.210;2022-08-24T16:45:18;42.50;99.90
56308;DHT22;42217;50.422;7.210;2022-08-24T16:47:45;42.00;99.90
56308;DHT22;42217;50.422;7.210;2022-08-24T16:50:16;41.80;99.90
56308;DHT22;42217;50.422;7.210;2022-08-24T16:52:42;41.30;99.90
56308;DHT22;42217;50.422;7.210;2022-08-24T16:55:08;40.80;99.90
56308;DHT22;42217;50.422;7.210;2022-08-24T16:57:34;39.70;99.90
56308;DHT22;42217;50.422;7.210;2022-08-24T17:00:05;38.50;99.90
56308;DHT22;42217;50.422;7.210;2022-08-24T17:02:31;37.20;99.90
56308;DHT22;42217;50.422;7.210;2022-08-24T17:04:57;36.00;99.90
56308;DHT22;42217;50.422;7.210;2022-08-24T17:07:26;35.00;99.90
56308;DHT22;42217;50.422;7.210;2022-08-24T17:09:53;34.30;99.90
56308;DHT22;42217;50.422;7.210;2022-08-24T17:12:20;33.20;99.90
56308;DHT22;42217;50.422;7.210;2022-08-24T17:14:46;32.70;99.90
56308;DHT22;42217;50.422;7.210;2022-08-24T17:17:14;32.20;99.90
56308;DHT22;42217;50.422;7.210;2022-08-24T17:19:41;32.10;99.90
56308;DHT22;42217;50.422;7.210;2022-08-24T17:22:07;32.10;99.90
56308;DHT22;42217;50.422;7.210;2022-08-24T17:24:33;31.70;99.90
56308;DHT22;42217;50.422;7.210;2022-08-24T17:27:01;31.60;99.90
56308;DHT22;42217;50.422;7.210;2022-08-24T17:29:27;31.30;99.90
56308;DHT22;42217;50.422;7.210;2022-08-24T17:31:53;31.20;99.90
56308;DHT22;42217;50.422;7.210;2022-08-24T17:34:19;31.00;99.90
56308;DHT22;42217;50.422;7.210;2022-08-24T17:36:48;30.80;99.90
56308;DHT22;42217;50.422;7.210;2022-08-24T17:39:16;30.60;99.90
56308;DHT22;42217;50.422;7.210;2022-08-24T17:41:42;30.20;99.90
56308;DHT22;42217;50.422;7.210;2022-08-24T17:44:17;29.90;99.90
56308;DHT22;42217;50.422;7.210;2022-08-24T17:46:47;29.80;99.90
56308;DHT22;42217;50.422;7.210;2022-08-24T17:49:13;29.70;99.90
56308;DHT22;42217;50.422;7.210;2022-08-24T17:51:39;29.40;99.90
56308;DHT22;42217;50.422;7.210;2022-08-24T17:54:05;29.10;99.90
56308;DHT22;42217;50.422;7.210;2022-08-24T17:56:32;28.80;99.90
56308;DHT22;42217;50.422;7.210;2022-08-24T17:59:12;28.60;99.90
56308;DHT22;42217;50.422;7.210;2022-08-24T18:02:06;28.40;99.90
56308;DHT22;42217;50.422;7.210;2022-08-24T18:04:35;28.10;99.90
56308;DHT22;42217;50.422;7.210;2022-08-24T18:07:03;27.80;99.90
56308;DHT22;42217;50.422;7.210;2022-08-24T18:09:46;27.60;99.90
56308;DHT22;42217;50.422;7.210;2022-08-24T18:12:17;27.30;99.90
56308;DHT22;42217;50.422;7.210;2022-08-24T18:14:43;27.00;99.90
56308;DHT22;42217;50.422;7.210;2022-08-24T18:17:12;26.70;99.90
56308;DHT22;42217;50.422;7.210;2022-08-24T18:19:42;26.60;99.90
56308;DHT22;42217;50.422;7.210;2022-08-24T18:22:08;26.30;99.90
56308;DHT22;42217;50.422;7.210;2022-08-24T18:24:35;26.10;99.90
56308;DHT22;42217;50.422;7.210;2022-08-24T18:27:07;26.10;99.90
56308;DHT22;42217;50.422;7.210;2022-08-24T18:29:35;26.10;99.90
56308;DHT22;42217;50.422;7.210;2022-08-24T18:32:01;26.00;99.90
56308;DHT22;42217;50.422;7.210;2022-08-24T18:34:27;25.90;99.90
56308;DHT22;42217;50.422;7.210;2022-08-24T18:36:55;25.80;99.90
56308;DHT22;42217;50.422;7.210;2022-08-24T18:39:20;25.60;99.90
56308;DHT22;42217;50.422;7.210;2022-08-24T18:41:47;25.40;99.90
56308;DHT22;42217;50.422;7.210;2022-08-24T18:44:16;25.20;1.00
56308;DHT22;42217;50.422;7.210;2022-08-24T18:46:43;25.00;1.00
56308;DHT22;42217;50.422;7.210;2022-08-24T18:49:08;24.80;66.60
56308;DHT22;42217;50.422;7.210;2022-08-24T18:51:35;24.70;99.90
56308;DHT22;42217;50.422;7.210;2022-08-24T18:54:10;24.60;99.90
56308;DHT22;42217;50.422;7.210;2022-08-24T18:56:37;24.50;99.90
56308;DHT22;42217;50.422;7.210;2022-08-24T18:59:05;24.50;99.90
56308;DHT22;42217;50.422;7.210;2022-08-24T19:01:32;24.40;99.90
56308;DHT22;42217;50.422;7.210;2022-08-24T19:04:21;24.30;99.90
56308;DHT22;42217;50.422;7.210;2022-08-24T19:06:47;24.20;1.00
56308;DHT22;42217;50.422;7.210;2022-08-24T19:09:13;24.00;1.00
56308;DHT22;42217;50.422;7.210;2022-08-24T19:11:39;23.90;99.20
56308;DHT22;42217;50.422;7.210;2022-08-24T19:14:05;23.80;99.90
56308;DHT22;42217;50.422;7.210;2022-08-24T19:16:31;23.70;99.90
56308;DHT22;42217;50.422;7.210;2022-08-24T19:18:57;23.70;99.90
56308;DHT22;42217;50.422;7.210;2022-08-24T19:21:33;23.60;99.90
56308;DHT22;42217;50.422;7.210;2022-08-24T19:24:01;23.50;1.00
56308;DHT22;42217;50.422;7.210;2022-08-24T19:26:28;23.40;1.00
56308;DHT22;42217;50.422;7.210;2022-08-24T19:28:55;23.40;75.40
56308;DHT22;42217;50.422;7.210;2022-08-24T19:31:25;23.30;99.90
56308;DHT22;42217;50.422;7.210;2022-08-24T19:33:52;23.20;99.90
56308;DHT22;42217;50.422;7.210;2022-08-24T19:36:19;23.20;99.90
56308;DHT22;42217;50.422;7.210;2022-08-24T19:38:46;23.10;99.90
56308;DHT22;42217;50.422;7.210;2022-08-24T19:41:12;23.10;99.90
56308;DHT22;42217;50.422;7.210;2022-08-24T19:43:38;23.00;1.00
56308;DHT22;42217;50.422;7.210;2022-08-24T19:46:25;22.90;3.70
56308;DHT22;42217;50.422;7.210;2022-08-24T19:48:51;22.90;75.20
56308;DHT22;42217;50.422;7.210;2022-08-24T19:51:17;22.80;99.90
56308;DHT22;42217;50.422;7.210;2022-08-24T19:53:43;22.70;99.90
56308;DHT22;42217;50.422;7.210;2022-08-24T19:56:09;22.80;87.20
56308;DHT22;42217;50.422;7.210;2022-08-24T20:01:23;22.50;1.00
56308;DHT22;42217;50.422;7.210;2022-08-24T20:03:50;22.30;97.20
56308;DHT22;42217;50.422;7.210;2022-08-24T20:06:17;22.30;99.90
56308;DHT22;42217;50.422;7.210;2022-08-24T20:08:46;22.40;99.90
56308;DHT22;42217;50.422;7.210;2022-08-24T20:11:12;22.40;99.90
56308;DHT22;42217;50.422;7.210;2022-08-24T20:13:39;22.50;99.90
56308;DHT22;42217;50.422;7.210;2022-08-24T20:16:06;22.40;99.90
56308;DHT22;42217;50.422;7.210;2022-08-24T20:18:34;22.20;99.90
56308;DHT22;42217;50.422;7.210;2022-08-24T20:21:00;22.10;1.00